Time;durP1;ratioP1;P1;durP2;ratioP2;P2;SDS_P1;SDS_P2;PMS_P1;PMS_P2;Temp;Humidity;BMP_temperature;BMP_pressure;BME280_temperature;BME280_humidity;BME280_pressure;Samples;Min_cycle;Max_cycle;Signal;HPM_P1;HPM_P2
2023/01/12 00:01:12;;;;;;;10.00;2.20;;;8.40;99.90;;;;;;5087999;28;20450;-50
2023/01/12 00:03:38;;;;;;;13.07;3.35;;;8.40;99.90;;;;;;5086959;28;20021;-51
2023/01/12 00:06:06;;;;;;;8.40;2.42;;;8.40;99.90;;;;;;5089524;28;20074;-47
2023/01/12 00:08:33;;;;;;;18.13;3.00;;;8.40;99.90;;;;;;5091580;28;20020;-45
2023/01/12 00:10:58;;;;;;;11.57;2.58;;;8.40;99.90;;;;;;5073607;28;20024;-46
2023/01/12 00:13:24;;;;;;;11.73;3.05;;;8.40;99.90;;;;;;5090826;28;20390;-45
2023/01/12 00:18:33;;;;;;;18.50;4.45;;;8.50;99.90;;;;;;5091610;28;20407;-45
2023/01/12 00:20:59;;;;;;;24.55;3.03;;;8.50;99.90;;;;;;5091239;28;20032;-46
2023/01/12 00:23:28;;;;;;;14.55;2.38;;;8.60;99.90;;;;;;5090506;28;20132;-46
2023/01/12 00:25:53;;;;;;;10.35;2.42;;;8.60;99.90;;;;;;5091370;28;20499;-44
2023/01/12 00:28:19;;;;;;;14.88;3.05;;;8.60;99.90;;;;;;5091865;28;20219;-49
2023/01/12 00:30:44;;;;;;;13.82;3.92;;;8.60;99.90;;;;;;5091284;28;20115;-47
2023/01/12 00:33:10;;;;;;;10.35;2.33;;;8.60;99.90;;;;;;5090634;28;20063;-47
2023/01/12 00:35:35;;;;;;;11.00;2.08;;;8.70;99.90;;;;;;5091174;28;20036;-45
2023/01/12 00:38:02;;;;;;;19.42;2.80;;;8.60;99.90;;;;;;5091350;28;20543;-50
2023/01/12 00:40:27;;;;;;;13.60;2.65;;;8.70;99.90;;;;;;5091218;28;20089;-45
2023/01/12 00:45:37;;;;;;;15.20;3.45;;;8.60;99.90;;;;;;5091304;28;20073;-49
2023/01/12 00:48:03;;;;;;;10.35;1.90;;;8.60;99.90;;;;;;5091221;28;20024;-46
2023/01/12 00:50:28;;;;;;;10.90;2.47;;;8.50;99.90;;;;;;5090979;28;20544;-45
2023/01/12 00:52:54;;;;;;;19.30;3.78;;;8.50;99.90;;;;;;5090419;28;20036;-44
2023/01/12 00:55:19;;;;;;;18.15;3.53;;;8.60;99.90;;;;;;5091001;28;20503;-50
2023/01/12 00:57:44;;;;;;;13.73;2.92;;;8.60;99.90;;;;;;5090966;28;20072;-48
2023/01/12 01:00:10;;;;;;;15.93;3.15;;;8.70;99.90;;;;;;5091089;28;20024;-45
2023/01/12 01:02:36;;;;;;;6.25;2.10;;;8.70;99.90;;;;;;5092826;28;20510;-44
2023/01/12 01:05:01;;;;;;;13.23;2.72;;;8.70;99.90;;;;;;5094961;28;20020;-50
2023/01/12 01:07:27;;;;;;;15.82;2.45;;;8.70;99.90;;;;;;5094874;28;20024;-48
2023/01/12 01:09:52;;;;;;;18.25;4.35;;;8.70;99.90;;;;;;5094652;28;20398;-49
2023/01/12 01:12:18;;;;;;;10.13;2.47;;;8.70;99.90;;;;;;5093843;28;20077;-49
2023/01/12 01:14:46;;;;;;;14.05;2.97;;;8.70;99.90;;;;;;5093704;28;20038;-47
2023/01/12 01:17:11;;;;;;;17.40;3.58;;;8.70;99.90;;;;;;5095204;28;20020;-51
2023/01/12 01:19:37;;;;;;;12.43;3.05;;;8.70;99.90;;;;;;5094523;28;20105;-45
2023/01/12 01:22:02;;;;;;;11.52;2.88;;;8.80;99.90;;;;;;5115506;22;20141;-56
2023/01/12 01:24:28;;;;;;;17.67;3.90;;;8.80;99.90;;;;;;5094805;28;20028;-50
2023/01/12 01:26:53;;;;;;;14.25;3.03;;;8.80;99.90;;;;;;5094576;28;20024;-52
2023/01/12 01:29:19;;;;;;;13.20;3.05;;;8.80;99.90;;;;;;5076315;28;20028;-50
2023/01/12 01:31:46;;;;;;;14.98;2.58;;;8.80;99.90;;;;;;5094614;28;20369;-54
2023/01/12 01:34:12;;;;;;;9.55;2.47;;;8.80;99.90;;;;;;5094068;28;20020;-51
2023/01/12 01:36:37;;;;;;;12.50;3.00;;;8.80;99.90;;;;;;5094410;28;20035;-50
2023/01/12 01:39:04;;;;;;;15.32;3.47;;;8.80;99.90;;;;;;5094472;28;20082;-54
2023/01/12 01:41:31;;;;;;;11.65;3.10;;;8.90;99.90;;;;;;5094097;28;20040;-51
2023/01/12 01:44:02;;;;;;;18.35;2.70;;;8.90;99.90;;;;;;5093787;28;20028;-53
2023/01/12 01:46:40;;;;;;;12.00;3.58;;;8.90;99.90;;;;;;5076442;28;20024;-53
2023/01/12 01:49:42;;;;;;;11.32;2.70;;;9.00;99.90;;;;;;5094522;28;20027;-52
2023/01/12 01:52:33;;;;;;;12.88;3.15;;;8.90;99.90;;;;;;5069863;28;20173;-52
2023/01/12 01:55:22;;;;;;;13.48;2.88;;;8.90;99.90;;;;;;5094338;28;20181;-51
2023/01/12 01:57:55;;;;;;;15.75;2.83;;;9.00;99.90;;;;;;5093926;28;20107;-54
2023/01/12 02:00:21;;;;;;;22.92;2.63;;;9.00;99.90;;;;;;5075808;28;20395;-51
2023/01/12 02:02:47;;;;;;;10.80;2.22;;;9.00;99.90;;;;;;5093069;28;20441;-53
2023/01/12 02:05:17;;;;;;;12.93;4.18;;;9.00;99.90;;;;;;5093926;28;20028;-49
2023/01/12 02:07:43;;;;;;;12.27;2.72;;;9.00;99.90;;;;;;5093765;28;20016;-51
2023/01/12 02:10:09;;;;;;;9.57;2.40;;;9.00;99.90;;;;;;5093683;28;20511;-50
2023/01/12 02:18:57;;;;;;;12.30;2.63;;;9.00;99.90;;;;;;5093881;28;20036;-52
2023/01/12 02:22:04;;;;;;;13.20;2.80;;;9.10;99.90;;;;;;5011366;28;20208;-56
2023/01/12 02:25:02;;;;;;;13.98;2.38;;;9.10;99.90;;;;;;5000864;28;20042;-50
2023/01/12 02:27:53;;;;;;;14.88;4.53;;;9.10;99.90;;;;;;5090025;28;20039;-56
2023/01/12 02:30:56;;;;;;;13.73;2.53;;;9.10;99.90;;;;;;5093261;28;20368;-50
2023/01/12 02:33:24;;;;;;;13.95;3.72;;;9.10;99.90;;;;;;5092462;28;20028;-54
2023/01/12 02:36:10;;;;;;;10.48;2.83;;;9.10;99.90;;;;;;5075262;28;20403;-52
2023/01/12 02:38:56;;;;;;;19.70;4.68;;;9.10;99.90;;;;;;5093474;28;20273;-49
2023/01/12 02:45:02;;;;;;;16.48;2.85;;;9.10;99.90;;;;;;5092995;28;20568;-50
2023/01/12 02:47:57;;;;;;;20.52;2.90;;;9.10;99.90;;;;;;4994489;28;20501;-51
2023/01/12 02:50:51;;;;;;;24.00;3.72;;;9.10;99.90;;;;;;5092234;28;20403;-51
2023/01/12 02:53:28;;;;;;;11.57;3.10;;;9.10;99.90;;;;;;5091987;28;20035;-56
2023/01/12 02:55:55;;;;;;;18.63;2.67;;;9.10;99.90;;;;;;5092976;28;20036;-51
2023/01/12 02:58:24;;;;;;;18.02;3.88;;;9.10;99.90;;;;;;5092955;28;20023;-52
2023/01/12 03:00:53;;;;;;;9.43;2.30;;;9.10;99.90;;;;;;5074624;28;20392;-55
2023/01/12 03:03:20;;;;;;;14.10;2.80;;;9.20;99.90;;;;;;5073865;28;20032;-53
2023/01/12 03:05:46;;;;;;;9.63;2.53;;;9.20;99.90;;;;;;5092170;28;20020;-51
2023/01/12 03:08:16;;;;;;;13.57;2.72;;;9.20;99.90;;;;;;5092567;28;20043;-50
2023/01/12 03:11:03;;;;;;;16.27;3.03;;;9.20;99.90;;;;;;5092978;28;20103;-52
2023/01/12 03:13:32;;;;;;;15.15;3.25;;;9.10;99.90;;;;;;5091847;28;20074;-50
2023/01/12 03:15:59;;;;;;;18.98;2.97;;;9.20;99.90;;;;;;5090629;28;20032;-55
2023/01/12 03:18:50;;;;;;;17.42;3.38;;;9.20;99.90;;;;;;5092235;28;20110;-52
2023/01/12 03:21:31;;;;;;;15.63;3.55;;;9.20;99.90;;;;;;5092184;28;20504;-51
2023/01/12 03:24:10;;;;;;;13.52;2.45;;;9.20;99.90;;;;;;5091443;28;20464;-52
2023/01/12 03:26:39;;;;;;;11.52;3.17;;;9.20;99.90;;;;;;5092079;28;20024;-54
2023/01/12 03:29:26;;;;;;;17.90;3.67;;;9.20;99.90;;;;;;5091997;28;20373;-51
2023/01/12 03:31:52;;;;;;;19.67;2.88;;;9.30;99.90;;;;;;5091491;28;20051;-52
2023/01/12 03:34:18;;;;;;;9.80;3.35;;;9.20;99.90;;;;;;5091749;28;20483;-52
2023/01/12 03:37:05;;;;;;;16.88;3.05;;;9.30;99.90;;;;;;5091885;28;20077;-54
2023/01/12 03:39:49;;;;;;;16.05;4.20;;;9.30;99.90;;;;;;5091956;28;20036;-52
2023/01/12 03:42:23;;;;;;;10.13;2.80;;;9.30;99.90;;;;;;5091116;28;20372;-52
2023/01/12 03:45:02;;;;;;;9.10;2.20;;;9.30;99.90;;;;;;5091820;28;20024;-51
2023/01/12 03:47:31;;;;;;;15.93;3.53;;;9.30;99.90;;;;;;5091841;28;20101;-53
2023/01/12 03:50:05;;;;;;;16.17;3.45;;;9.30;99.90;;;;;;5091784;28;20020;-53
2023/01/12 03:52:34;;;;;;;17.35;3.00;;;9.30;99.90;;;;;;5090916;28;20059;-53
2023/01/12 03:55:02;;;;;;;17.48;4.07;;;9.30;99.90;;;;;;5091714;28;20028;-51
2023/01/12 03:57:28;;;;;;;16.02;2.72;;;9.30;99.90;;;;;;5091453;28;20107;-54
2023/01/12 03:59:56;;;;;;;11.05;2.15;;;9.30;99.90;;;;;;5091489;28;20553;-54
2023/01/12 04:02:21;;;;;;;6.35;2.20;;;9.30;99.90;;;;;;5090692;28;20107;-51
2023/01/12 04:04:47;;;;;;;17.60;3.78;;;9.40;99.90;;;;;;5091558;28;20052;-51
2023/01/12 04:07:12;;;;;;;21.00;2.58;;;9.40;99.90;;;;;;5091564;28;20484;-54
2023/01/12 04:09:38;;;;;;;15.98;2.25;;;9.40;99.90;;;;;;5091775;28;20055;-50
2023/01/12 04:12:09;;;;;;;11.32;2.25;;;9.40;99.90;;;;;;5090828;28;20470;-54
2023/01/12 04:14:40;;;;;;;18.25;3.15;;;9.40;99.90;;;;;;5089964;28;20024;-55
2023/01/12 04:17:07;;;;;;;17.98;3.40;;;9.40;99.90;;;;;;5091513;28;20051;-56
2023/01/12 04:19:32;;;;;;;10.75;2.67;;;9.40;99.90;;;;;;5091692;28;20028;-50
2023/01/12 04:24:41;;;;;;;16.48;3.75;;;9.40;99.90;;;;;;5091732;28;20069;-50
2023/01/12 04:27:07;;;;;;;10.90;3.15;;;9.40;99.90;;;;;;5091351;28;20024;-51
2023/01/12 04:29:33;;;;;;;13.52;2.95;;;9.40;99.90;;;;;;5091408;28;20048;-54
2023/01/12 04:31:58;;;;;;;12.63;2.60;;;9.40;99.90;;;;;;5072567;28;20028;-49
2023/01/12 04:34:24;;;;;;;14.20;3.15;;;9.40;99.90;;;;;;5091243;28;20508;-52
2023/01/12 04:36:49;;;;;;;14.93;3.33;;;9.50;99.90;;;;;;5092279;28;20028;-50
2023/01/12 04:39:15;;;;;;;13.98;3.00;;;9.40;99.90;;;;;;5095349;28;20137;-51
2023/01/12 04:41:40;;;;;;;12.05;3.53;;;9.40;99.90;;;;;;5095192;28;20036;-52
2023/01/12 04:44:06;;;;;;;7.88;2.00;;;9.40;99.90;;;;;;5094860;28;20023;-52
2023/01/12 04:46:31;;;;;;;12.07;3.35;;;9.50;99.90;;;;;;5095059;28;20046;-48
2023/01/12 04:48:57;;;;;;;13.40;2.85;;;9.40;99.90;;;;;;5095264;28;20027;-54
2023/01/12 04:51:23;;;;;;;7.00;2.10;;;9.40;99.90;;;;;;5094991;28;20067;-53
2023/01/12 04:53:50;;;;;;;11.98;2.60;;;9.40;99.90;;;;;;5094240;28;20020;-52
2023/01/12 04:56:15;;;;;;;20.10;3.63;;;9.50;99.90;;;;;;5095017;28;20515;-52
2023/01/12 04:58:41;;;;;;;14.48;2.97;;;9.50;99.90;;;;;;5094880;28;20024;-54
2023/01/12 05:01:12;;;;;;;14.63;2.80;;;9.50;99.90;;;;;;5095013;28;20017;-51
2023/01/12 05:03:37;;;;;;;11.65;2.67;;;9.50;99.90;;;;;;5094125;28;20507;-55
2023/01/12 05:06:03;;;;;;;10.88;2.72;;;9.50;99.90;;;;;;5094903;28;20024;-53
2023/01/12 05:11:13;;;;;;;9.05;2.60;;;9.50;99.90;;;;;;5094982;28;20387;-52
2023/01/12 05:13:39;;;;;;;15.23;2.65;;;9.50;99.90;;;;;;5093967;28;20107;-51
2023/01/12 05:16:23;;;;;;;11.88;3.28;;;9.40;99.90;;;;;;5092772;28;20480;-51
2023/01/12 05:18:51;;;;;;;13.60;3.03;;;9.60;99.90;;;;;;5094888;28;20384;-50
2023/01/12 05:21:17;;;;;;;11.88;3.10;;;9.40;99.90;;;;;;5094382;28;20504;-53
2023/01/12 05:23:43;;;;;;;16.70;2.45;;;9.40;99.90;;;;;;5093730;28;20073;-51
2023/01/12 05:26:10;;;;;;;16.38;2.63;;;9.50;99.90;;;;;;5094575;28;20060;-59
2023/01/12 05:28:36;;;;;;;6.40;1.92;;;9.40;99.90;;;;;;5094662;28;20021;-54
2023/01/12 05:31:10;;;;;;;20.00;3.72;;;9.40;99.90;;;;;;5094405;28;20031;-53
2023/01/12 05:33:37;;;;;;;8.98;3.05;;;9.40;99.90;;;;;;5093696;28;20028;-51
2023/01/12 05:36:04;;;;;;;21.13;3.38;;;9.30;99.90;;;;;;5094257;28;20039;-54
2023/01/12 05:38:30;;;;;;;9.60;2.30;;;9.30;99.90;;;;;;5094230;28;20503;-52
2023/01/12 05:41:02;;;;;;;10.15;2.58;;;9.40;99.90;;;;;;5094139;28;20030;-53
2023/01/12 05:46:13;;;;;;;18.02;3.22;;;9.40;99.90;;;;;;5094232;28;20026;-54
2023/01/12 05:48:39;;;;;;;9.43;2.47;;;9.40;99.90;;;;;;5076154;28;20518;-50
2023/01/12 05:51:06;;;;;;;11.20;2.55;;;9.30;99.90;;;;;;5076368;28;20024;-54
2023/01/12 05:53:32;;;;;;;7.85;2.78;;;9.30;99.90;;;;;;5093628;28;20098;-51
2023/01/12 05:55:58;;;;;;;8.40;2.03;;;9.40;99.90;;;;;;5094396;28;20535;-55
2023/01/12 05:58:24;;;;;;;7.72;2.20;;;9.40;99.90;;;;;;5094983;28;20028;-50
2023/01/12 06:00:49;;;;;;;9.07;2.40;;;9.40;99.90;;;;;;5094120;28;20066;-48
2023/01/12 06:03:15;;;;;;;7.22;2.35;;;9.40;99.90;;;;;;5093277;28;20059;-49
2023/01/12 06:05:41;;;;;;;8.23;2.00;;;9.40;99.90;;;;;;5093566;28;20024;-53
2023/01/12 06:08:07;;;;;;;14.07;2.58;;;9.40;99.90;;;;;;5093750;28;20487;-53
2023/01/12 06:10:33;;;;;;;10.50;1.90;;;9.40;99.90;;;;;;5093605;28;20017;-54
2023/01/12 06:15:44;;;;;;;10.13;2.03;;;9.50;99.90;;;;;;5092214;28;20035;-55
2023/01/12 06:18:09;;;;;;;5.18;1.98;;;9.50;99.90;;;;;;5093448;28;20032;-50
2023/01/12 06:20:34;;;;;;;7.20;1.70;;;9.50;99.90;;;;;;5093144;28;20079;-49
2023/01/12 06:23:01;;;;;;;6.72;1.75;;;9.50;99.90;;;;;;5092690;28;20093;-49
2023/01/12 06:25:28;;;;;;;4.22;1.50;;;9.40;99.90;;;;;;5093409;28;20013;-49
2023/01/12 06:27:54;;;;;;;13.68;2.13;;;9.40;99.90;;;;;;5093130;28;20413;-51
2023/01/12 06:30:20;;;;;;;9.50;2.95;;;9.50;99.90;;;;;;5092961;28;20017;-54
2023/01/12 06:32:45;;;;;;;16.85;1.92;;;9.50;99.90;;;;;;5092519;28;20035;-51
2023/01/12 06:35:11;;;;;;;5.72;2.00;;;9.50;99.90;;;;;;5093187;28;20404;-50
2023/01/12 06:37:37;;;;;;;13.93;2.45;;;9.50;99.90;;;;;;5093183;28;20035;-51
2023/01/12 06:40:02;;;;;;;11.80;2.42;;;9.40;99.90;;;;;;5093464;28;20028;-54
2023/01/12 06:42:28;;;;;;;6.68;1.67;;;9.50;99.90;;;;;;5092369;28;20032;-52
2023/01/12 06:44:55;;;;;;;7.07;2.15;;;9.50;99.90;;;;;;5074544;28;20107;-49
2023/01/12 06:47:21;;;;;;;12.13;3.72;;;9.50;99.90;;;;;;5092720;28;20028;-51
2023/01/12 06:49:46;;;;;;;11.32;2.35;;;9.50;99.90;;;;;;5092885;28;20107;-53
2023/01/12 06:52:12;;;;;;;7.93;2.10;;;9.50;99.90;;;;;;5092000;28;20021;-50
2023/01/12 06:54:37;;;;;;;8.57;2.60;;;9.50;99.90;;;;;;5093242;28;20507;-49
2023/01/12 06:57:03;;;;;;;15.15;2.50;;;9.50;99.90;;;;;;5092537;28;20408;-54
2023/01/12 06:59:28;;;;;;;8.55;2.70;;;9.50;99.90;;;;;;5091963;28;20492;-51
2023/01/12 07:01:54;;;;;;;14.02;2.65;;;9.50;99.90;;;;;;5092044;28;20020;-53
2023/01/12 07:04:20;;;;;;;11.93;2.35;;;9.60;99.90;;;;;;5092069;28;20023;-52
2023/01/12 07:06:47;;;;;;;8.57;2.70;;;9.60;99.90;;;;;;5092538;28;20028;-54
2023/01/12 07:09:12;;;;;;;10.95;2.00;;;9.60;99.90;;;;;;5092396;28;20479;-54
2023/01/12 07:11:38;;;;;;;13.48;2.58;;;9.60;99.90;;;;;;5092333;28;20012;-52
2023/01/12 07:14:03;;;;;;;10.50;2.85;;;9.70;99.90;;;;;;5089680;28;20020;-52
2023/01/12 07:16:29;;;;;;;12.07;2.20;;;9.70;99.90;;;;;;5092200;28;20027;-54
2023/01/12 07:18:54;;;;;;;6.75;1.73;;;9.70;99.90;;;;;;5092251;28;20497;-51
2023/01/12 07:21:20;;;;;;;9.63;3.03;;;9.60;99.90;;;;;;5093223;28;20028;-54
2023/01/12 07:23:46;;;;;;;7.38;2.50;;;9.70;99.90;;;;;;5091309;28;20023;-56
2023/01/12 07:26:12;;;;;;;7.18;1.80;;;9.70;99.90;;;;;;5091863;28;20382;-57
2023/01/12 07:28:38;;;;;;;12.43;1.70;;;9.70;99.90;;;;;;5092099;28;20020;-53
2023/01/12 07:31:04;;;;;;;8.10;1.80;;;9.70;99.90;;;;;;5092202;28;20047;-53
2023/01/12 07:33:31;;;;;;;8.65;1.92;;;9.70;99.90;;;;;;5091198;28;20119;-51
2023/01/12 07:36:00;;;;;;;9.80;3.03;;;9.70;99.90;;;;;;5091836;28;20028;-52
2023/01/12 07:38:29;;;;;;;10.32;2.03;;;9.80;99.90;;;;;;5091884;28;20024;-53
2023/01/12 07:41:02;;;;;;;7.45;1.33;;;9.70;99.90;;;;;;5073407;28;20031;-54
2023/01/12 07:43:28;;;;;;;10.23;2.08;;;9.80;99.90;;;;;;5090869;28;20032;-54
2023/01/12 07:45:58;;;;;;;13.20;2.50;;;9.80;99.90;;;;;;5073587;28;20472;-54
2023/01/12 07:48:25;;;;;;;9.27;1.60;;;9.80;99.90;;;;;;5091820;28;20107;-54
2023/01/12 07:50:51;;;;;;;6.85;2.65;;;9.90;99.90;;;;;;5091763;28;20023;-51
2023/01/12 07:53:18;;;;;;;4.07;1.27;;;9.90;99.90;;;;;;5091007;28;20020;-51
2023/01/12 07:55:43;;;;;;;14.90;3.08;;;9.80;99.90;;;;;;5091541;28;20095;-56
2023/01/12 07:58:09;;;;;;;5.82;1.42;;;9.80;99.90;;;;;;5073470;28;20115;-55
2023/01/12 08:00:35;;;;;;;8.23;1.67;;;9.70;99.90;;;;;;5091470;28;20491;-50
2023/01/12 08:03:10;;;;;;;5.80;1.10;;;9.70;99.90;;;;;;5090846;28;20032;-54
2023/01/12 08:05:37;;;;;;;8.65;1.48;;;9.70;99.90;;;;;;5073026;28;20405;-53
2023/01/12 08:08:03;;;;;;;4.38;1.02;;;9.60;99.90;;;;;;5091568;28;20028;-50
2023/01/12 08:10:29;;;;;;;8.55;1.67;;;9.60;99.90;;;;;;5091088;28;20107;-50
2023/01/12 08:12:54;;;;;;;6.75;1.17;;;9.60;99.90;;;;;;5071373;28;20140;-44
2023/01/12 08:15:20;;;;;;;6.45;2.30;;;9.60;99.90;;;;;;5089051;28;20035;-45
2023/01/12 08:17:55;;;;;;;3.55;1.42;;;9.60;99.90;;;;;;5091105;28;20578;-45
2023/01/12 08:20:35;;;;;;;3.87;1.00;;;9.60;99.90;;;;;;5072674;28;20399;-47
2023/01/12 08:23:07;;;;;;;4.28;1.10;;;9.60;99.90;;;;;;5072635;28;20564;-46
2023/01/12 08:25:37;;;;;;;5.78;1.23;;;9.70;99.90;;;;;;5072074;28;20031;-45
2023/01/12 08:28:07;;;;;;;4.97;0.88;;;9.70;99.90;;;;;;5091464;28;20436;-47
2023/01/12 08:30:33;;;;;;;7.97;2.20;;;9.70;99.90;;;;;;5079348;28;20021;-50
2023/01/12 08:33:00;;;;;;;4.45;0.82;;;9.70;99.90;;;;;;5074726;28;20043;-50
2023/01/12 08:35:27;;;;;;;7.45;0.82;;;9.70;99.90;;;;;;5091038;28;20032;-47
2023/01/12 08:37:54;;;;;;;3.80;0.90;;;9.70;99.90;;;;;;5091096;28;20028;-43
2023/01/12 08:40:20;;;;;;;1.98;0.80;;;9.70;99.90;;;;;;5075453;28;20369;-44
2023/01/12 08:42:45;;;;;;;1.95;0.65;;;9.70;99.90;;;;;;5070088;28;20048;-48
2023/01/12 08:45:11;;;;;;;2.85;0.93;;;9.70;99.90;;;;;;5053257;28;20031;-45
2023/01/12 08:47:39;;;;;;;3.75;0.90;;;9.80;99.90;;;;;;5071073;28;20028;-48
2023/01/12 08:50:06;;;;;;;2.92;0.80;;;9.70;99.90;;;;;;5075094;28;20012;-45
2023/01/12 08:52:34;;;;;;;5.68;0.80;;;9.80;99.90;;;;;;5074591;28;20048;-46
2023/01/12 08:54:59;;;;;;;1.77;0.88;;;9.80;99.90;;;;;;5071102;28;20492;-48
2023/01/12 08:57:25;;;;;;;3.92;0.73;;;9.70;99.90;;;;;;5070844;28;20025;-47
2023/01/12 08:59:50;;;;;;;2.88;0.88;;;9.80;99.90;;;;;;5070816;28;20492;-45
2023/01/12 09:02:16;;;;;;;2.45;0.68;;;9.80;99.90;;;;;;5076851;28;20023;-48
2023/01/12 09:04:41;;;;;;;4.57;0.93;;;9.80;99.90;;;;;;5091027;28;20016;-48
2023/01/12 09:07:10;;;;;;;1.27;0.60;;;9.80;99.90;;;;;;5091012;28;20012;-48
2023/01/12 09:09:36;;;;;;;2.20;0.75;;;9.80;99.90;;;;;;5090872;28;20356;-50
2023/01/12 09:12:02;;;;;;;3.10;1.17;;;9.80;99.90;;;;;;5090118;28;20024;-47
2023/01/12 09:14:28;;;;;;;2.75;0.85;;;9.80;99.90;;;;;;5090759;28;20032;-47
2023/01/12 09:16:57;;;;;;;0.68;0.43;;;9.80;99.90;;;;;;5090864;28;20129;-45
2023/01/12 09:19:22;;;;;;;1.05;0.70;;;9.80;99.90;;;;;;5090211;28;20062;-49
2023/01/12 09:21:48;;;;;;;3.28;0.80;;;9.80;99.90;;;;;;5090349;28;20067;-46
2023/01/12 09:24:14;;;;;;;2.13;0.75;;;9.70;99.90;;;;;;5093437;28;20073;-46
2023/01/12 09:26:42;;;;;;;3.15;1.52;;;9.70;99.90;;;;;;5093541;28;20468;-45
2023/01/12 09:29:10;;;;;;;2.63;0.88;;;9.70;99.90;;;;;;5093060;28;20028;-48
2023/01/12 09:31:37;;;;;;;2.63;0.80;;;9.70;99.90;;;;;;5093642;28;20028;-48
2023/01/12 09:34:03;;;;;;;5.78;0.93;;;9.80;99.90;;;;;;5093503;28;20039;-43
2023/01/12 09:36:31;;;;;;;4.38;0.90;;;9.70;99.90;;;;;;5094567;28;20024;-47
2023/01/12 09:38:57;;;;;;;3.78;1.10;;;9.70;99.90;;;;;;5094084;28;20439;-45
2023/01/12 09:47:27;;;;;;;4.35;1.33;;;9.80;99.90;;;;;;5094013;28;20473;-46
2023/01/12 09:50:02;;;;;;;2.88;1.75;;;9.80;99.90;;;;;;5094042;28;20063;-47
2023/01/12 09:52:32;;;;;;;5.00;1.20;;;9.90;99.90;;;;;;5093146;28;20426;-48
2023/01/12 09:54:58;;;;;;;4.70;1.30;;;9.80;99.90;;;;;;5094432;28;20375;-46
2023/01/12 09:57:53;;;;;;;8.13;1.85;;;9.90;99.90;;;;;;5093760;28;20032;-45
2023/01/12 10:00:20;;;;;;;4.53;1.15;;;9.90;99.90;;;;;;5093736;28;20446;-47
2023/01/12 10:03:04;;;;;;;4.10;1.30;;;9.90;99.90;;;;;;5092746;28;20032;-47
2023/01/12 10:05:50;;;;;;;5.97;1.60;;;10.00;99.90;;;;;;5093428;28;20040;-48
2023/01/12 10:08:24;;;;;;;3.25;1.38;;;10.00;99.90;;;;;;5089853;28;20030;-45
2023/01/12 10:11:00;;;;;;;1.25;0.65;;;10.10;99.90;;;;;;5093337;28;20099;-47
2023/01/12 10:13:26;;;;;;;;;;;;;;;;;;5088877;28;20020;-45
2023/01/12 10:16:01;;;;;;;8.07;2.20;;;10.10;99.90;;;;;;5093326;28;20198;-45
2023/01/12 10:18:30;;;;;;;6.30;1.05;;;10.10;99.90;;;;;;5081791;28;20451;-48
2023/01/12 10:20:57;;;;;;;5.50;1.70;;;10.10;99.90;;;;;;5072916;28;20108;-48
2023/01/12 10:23:25;;;;;;;6.50;1.38;;;10.10;99.90;;;;;;5073584;28;20475;-45
2023/01/12 10:26:17;;;;;;;8.45;1.48;;;10.10;99.90;;;;;;5092314;28;20111;-47
2023/01/12 10:28:45;;;;;;;5.28;1.13;;;10.10;99.90;;;;;;5092640;28;20503;-44
2023/01/12 10:31:18;;;;;;;5.85;1.08;;;10.10;99.90;;;;;;5092722;28;20107;-44
2023/01/12 10:34:08;;;;;;;6.32;1.10;;;10.10;99.90;;;;;;5070848;28;20510;-45
2023/01/12 10:36:40;;;;;;;2.58;0.85;;;10.20;99.90;;;;;;5092892;28;20055;-46
2023/01/12 10:39:28;;;;;;;4.15;1.85;;;10.20;99.90;;;;;;5093005;28;20174;-45
2023/01/12 10:45:15;;;;;;;5.15;1.35;;;10.20;99.90;;;;;;5087241;28;20046;-46
2023/01/12 10:47:41;;;;;;;4.40;1.08;;;10.10;99.90;;;;;;5092662;28;20035;-45
2023/01/12 10:50:21;;;;;;;5.88;1.00;;;10.10;99.90;;;;;;5092451;28;20043;-47
2023/01/12 10:52:49;;;;;;;2.45;0.73;;;10.10;99.90;;;;;;5091868;28;20361;-45
2023/01/12 10:55:22;;;;;;;1.20;0.70;;;10.10;99.90;;;;;;5093129;28;20388;-46
2023/01/12 10:57:49;;;;;;;4.63;0.98;;;10.00;99.90;;;;;;5092631;28;20090;-44
2023/01/12 11:00:22;;;;;;;5.00;1.10;;;10.00;99.90;;;;;;5093113;28;20497;-47
2023/01/12 11:02:48;;;;;;;4.32;0.98;;;10.00;99.90;;;;;;5091347;28;20122;-49
2023/01/12 11:05:30;;;;;;;2.13;0.95;;;10.00;99.90;;;;;;5092139;28;20024;-47
2023/01/12 11:07:56;;;;;;;7.03;1.08;;;10.00;99.90;;;;;;5092269;28;20027;-45
2023/01/12 11:10:30;;;;;;;3.30;0.85;;;10.00;99.90;;;;;;5091691;28;20016;-46
2023/01/12 11:13:02;;;;;;;4.60;0.80;;;10.00;99.90;;;;;;5091310;28;20388;-45
2023/01/12 11:15:29;;;;;;;5.40;0.80;;;10.00;99.90;;;;;;5091775;28;20027;-45
2023/01/12 11:18:24;;;;;;;2.65;0.85;;;10.10;99.90;;;;;;5091785;28;20436;-46
2023/01/12 11:21:00;;;;;;;4.78;0.80;;;10.10;99.90;;;;;;5091377;28;20032;-47
2023/01/12 11:23:44;;;;;;;;;;;10.10;99.90;;;;;;5091777;28;20470;-45
2023/01/12 11:26:19;;;;;;;0.47;0.47;;;10.10;99.90;;;;;;5092016;28;19915;-46
2023/01/12 11:28:48;;;;;;;1.15;0.52;;;10.10;99.90;;;;;;5091899;28;20027;-49
2023/01/12 11:31:21;;;;;;;3.03;0.63;;;10.20;99.90;;;;;;5091426;28;20119;-46
2023/01/12 11:33:57;;;;;;;1.80;0.40;;;10.20;99.90;;;;;;5091329;28;20024;-46
2023/01/12 11:36:30;;;;;;;2.40;0.75;;;10.10;99.90;;;;;;5092147;28;20027;-45
2023/01/12 11:39:22;;;;;;;0.60;0.60;;;10.10;99.90;;;;;;5093831;28;20104;-41
2023/01/12 11:45:13;;;;;;;1.55;0.57;;;10.20;99.90;;;;;;5092984;28;20027;-40
2023/01/12 11:47:44;;;;;;;1.20;0.65;;;10.60;99.90;;;;;;5074144;28;20094;-48
2023/01/12 11:50:27;;;;;;;0.77;0.40;;;10.20;99.90;;;;;;5091380;28;20020;-54
2023/01/12 11:52:54;;;;;;;2.42;0.68;;;10.20;99.90;;;;;;5091279;28;20102;-52
2023/01/12 11:55:48;;;;;;;1.83;0.50;;;10.20;99.90;;;;;;5086557;28;20023;-52
2023/01/12 11:58:43;;;;;;;0.57;0.50;;;10.20;99.90;;;;;;5089474;28;20376;-53
2023/01/12 12:01:16;;;;;;;0.90;0.65;;;10.20;99.90;;;;;;5089973;28;20032;-55
2023/01/12 12:03:48;;;;;;;2.30;0.80;;;10.20;99.90;;;;;;5089823;28;20036;-56
2023/01/12 12:06:16;;;;;;;1.58;0.68;;;10.10;99.90;;;;;;5091023;28;20468;-51
2023/01/12 12:09:03;;;;;;;0.25;0.25;;;10.10;99.90;;;;;;5082594;28;20257;-52
2023/01/12 12:11:52;;;;;;;0.30;0.30;;;10.10;99.90;;;;;;5090567;28;20020;-50
2023/01/12 12:14:27;;;;;;;2.95;0.43;;;10.10;99.90;;;;;;5082624;28;20505;-57
2023/01/12 12:17:18;;;;;;;0.40;0.40;;;10.20;99.90;;;;;;5088966;28;20107;-53
2023/01/12 12:20:16;;;;;;;2.65;0.65;;;10.20;99.90;;;;;;5090829;28;20081;-50
2023/01/12 12:23:06;;;;;;;0.40;0.40;;;10.20;99.90;;;;;;5045016;28;20121;-57
2023/01/12 12:25:55;;;;;;;0.55;0.40;;;10.20;99.90;;;;;;5089493;28;20028;-50
2023/01/12 12:28:38;;;;;;;0.40;0.40;;;10.20;99.90;;;;;;5090329;28;20069;-53
2023/01/12 12:31:24;;;;;;;1.10;0.43;;;10.20;99.90;;;;;;5090510;28;20383;-56
2023/01/12 12:34:11;;;;;;;;;;;10.20;99.90;;;;;;5089009;28;20028;-53
2023/01/12 12:37:01;;;;;;;0.70;0.60;;;10.20;99.90;;;;;;5080663;28;20383;-50
2023/01/12 12:39:43;;;;;;;1.30;0.50;;;10.30;99.90;;;;;;5072305;28;20028;-48
2023/01/12 12:45:58;;;;;;;0.80;0.40;;;10.30;99.90;;;;;;5088567;28;20026;-50
2023/01/12 12:48:35;;;;;;;2.22;0.32;;;10.30;99.90;;;;;;5072379;28;20028;-52
2023/01/12 12:51:08;;;;;;;0.98;0.40;;;10.30;99.90;;;;;;5090736;28;20024;-45
2023/01/12 12:53:44;;;;;;;0.90;0.30;;;10.30;99.90;;;;;;5072304;28;20040;-46
2023/01/12 12:56:13;;;;;;;0.55;0.38;;;10.30;99.90;;;;;;5091310;28;20031;-45
2023/01/12 12:58:44;;;;;;;0.40;0.40;;;10.20;99.90;;;;;;5093401;28;20024;-45
2023/01/12 13:01:18;;;;;;;0.30;0.30;;;10.20;99.90;;;;;;5076788;28;20105;-47
2023/01/12 13:03:54;;;;;;;0.40;0.40;;;10.20;99.90;;;;;;5093916;28;20024;-44
2023/01/12 13:06:45;;;;;;;0.30;0.30;;;10.20;99.90;;;;;;5094823;28;20027;-45
2023/01/12 13:09:10;;;;;;;0.32;0.28;;;10.20;99.90;;;;;;5094917;28;20697;-44
2023/01/12 13:11:54;;;;;;;0.30;0.30;;;10.20;99.90;;;;;;5095049;28;20107;-42
2023/01/12 13:14:34;;;;;;;0.80;0.40;;;10.20;99.90;;;;;;5094414;28;20502;-45
2023/01/12 13:17:03;;;;;;;0.38;0.35;;;10.20;99.90;;;;;;5094861;28;20039;-48
2023/01/12 13:19:34;;;;;;;1.02;0.35;;;10.20;99.90;;;;;;5094528;28;20021;-45
2023/01/12 13:22:28;;;;;;;0.65;0.40;;;10.30;99.90;;;;;;5094922;28;20474;-47
2023/01/12 13:24:56;;;;;;;0.52;0.50;;;10.30;99.90;;;;;;5094446;28;20036;-44
2023/01/12 13:27:59;;;;;;;2.17;0.30;;;10.30;99.90;;;;;;5094467;28;20023;-44
2023/01/12 13:30:30;;;;;;;0.55;0.30;;;10.30;99.90;;;;;;5094618;28;20432;-43
2023/01/12 13:33:13;;;;;;;0.20;0.20;;;10.30;99.90;;;;;;5093953;28;20035;-44
2023/01/12 13:35:39;;;;;;;1.70;0.90;;;10.40;99.90;;;;;;5094400;28;20055;-46
2023/01/12 13:38:30;;;;;;;0.20;0.20;;;10.40;99.90;;;;;;5094145;28;20044;-48
2023/01/12 13:44:13;;;;;;;0.28;0.28;;;10.40;99.90;;;;;;5093533;28;20163;-46
2023/01/12 13:46:46;;;;;;;0.35;0.30;;;10.40;99.90;;;;;;5094027;28;20093;-44
2023/01/12 13:49:31;;;;;;;0.88;0.28;;;10.40;99.90;;;;;;5094227;28;20028;-46
2023/01/12 13:52:18;;;;;;;0.30;0.30;;;10.40;99.90;;;;;;5093390;28;20020;-45
2023/01/12 13:54:48;;;;;;;0.32;0.32;;;10.40;99.90;;;;;;5093854;28;20070;-42
2023/01/12 13:57:19;;;;;;;0.95;0.77;;;10.50;99.90;;;;;;5094225;28;20020;-43